Time;durP1;ratioP1;P1;durP2;ratioP2;P2;SDS_P1;SDS_P2;PMS_P1;PMS_P2;Temp;Humidity;BMP_temperature;BMP_pressure;BME280_temperature;BME280_humidity;BME280_pressure;Samples;Min_cycle;Max_cycle;Signal;HPM_P1;HPM_P2
2023/10/03 00:01:18;;;;;;;;;;;;;;;22.38;59.56;101096.22;4897875;29;6292;-70
2023/10/03 00:03:45;;;;;;;;;;;;;;;22.38;59.49;101102.72;4900364;29;2192;-71
2023/10/03 00:06:12;;;;;;;;;;;;;;;22.39;59.45;101100.56;4899175;29;2183;-70
2023/10/03 00:08:38;;;;;;;;;;;;;;;22.38;59.47;101087.56;4899978;29;2155;-71
2023/10/03 00:11:05;;;;;;;;;;;;;;;22.37;59.63;101081.03;4900128;29;2169;-70
2023/10/03 00:13:31;;;;;;;;;;;;;;;22.36;59.34;101078.81;4899795;29;2148;-70
2023/10/03 00:15:58;;;;;;;;;;;;;;;22.37;59.22;101074.50;4900426;29;2373;-71
2023/10/03 00:18:24;;;;;;;;;;;;;;;22.36;59.19;101073.03;4898606;29;2317;-70
2023/10/03 00:20:51;;;;;;;;;;;;;;;22.37;59.33;101062.97;4899620;29;2180;-70
2023/10/03 00:23:17;;;;;;;;;;;;;;;22.36;59.26;101067.28;4899010;29;2162;-71
2023/10/03 00:25:44;;;;;;;;;;;;;;;22.35;59.02;101057.84;4899053;29;2205;-70
2023/10/03 00:28:10;;;;;;;;;;;;;;;22.36;59.23;101052.84;4899529;29;2128;-70
2023/10/03 00:30:40;;;;;;;;;;;;;;;22.36;59.14;101044.19;4880163;29;6478;-70
2023/10/03 00:33:12;;;;;;;;;;;;;;;22.35;59.16;101046.31;4886010;29;2526;-71
2023/10/03 00:35:42;;;;;;;;;;;;;;;22.35;59.01;101043.44;4893037;29;2297;-70
2023/10/03 00:38:13;;;;;;;;;;;;;;;22.35;59.22;101043.44;4896452;29;2156;-70
2023/10/03 00:40:40;;;;;;;;;;;;;;;22.35;59.22;101037.66;4898175;29;2227;-70
2023/10/03 00:43:07;;;;;;;;;;;;;;;22.36;59.02;101032.66;4897750;29;2184;-71
2023/10/03 00:45:34;;;;;;;;;;;;;;;22.36;59.18;101027.63;4897676;29;2125;-69
2023/10/03 00:48:11;;;;;;;;;;;;;;;22.36;59.16;101029.75;4897863;29;2443;-70
2023/10/03 00:50:38;;;;;;;;;;;;;;;22.36;58.97;101032.66;4882373;29;2131;-70
2023/10/03 00:53:09;;;;;;;;;;;;;;;22.35;59.14;101025.38;4897662;29;2196;-70
2023/10/03 00:55:36;;;;;;;;;;;;;;;22.35;59.29;101019.63;4897124;29;2324;-70
2023/10/03 01:00:49;;;;;;;;;;;;;;;22.33;59.05;101005.09;4873293;29;6128;-70
2023/10/03 01:03:28;;;;;;;;;;;;;;;22.34;59.23;101003.72;4898505;29;2145;-71
2023/10/03 01:05:58;;;;;;;;;;;;;;;22.35;59.22;100999.41;4897956;29;2180;-71
2023/10/03 01:08:26;;;;;;;;;;;;;;;22.34;59.10;101003.72;4898620;29;2168;-70
2023/10/03 01:10:55;;;;;;;;;;;;;;;22.34;59.09;100997.94;4899497;29;2195;-73
2023/10/03 01:13:24;;;;;;;;;;;;;;;22.32;58.91;100992.09;4899261;29;2347;-73
2023/10/03 01:15:50;;;;;;;;;;;;;;;22.33;59.21;100987.78;4898543;29;2335;-72
2023/10/03 01:18:20;;;;;;;;;;;;;;;22.31;59.15;100979.81;4894085;29;2376;-72
2023/10/03 01:20:55;;;;;;;;;;;;;;;22.31;59.14;100984.81;4898659;29;2181;-71
2023/10/03 01:23:21;;;;;;;;;;;;;;;22.32;58.94;100981.28;4899107;29;2215;-72
2023/10/03 01:25:48;;;;;;;;;;;;;;;22.32;58.84;100980.56;4899056;29;2160;-72
2023/10/03 01:28:15;;;;;;;;;;;;;;;22.31;59.19;100985.59;4893300;29;2208;-73
2023/10/03 01:30:41;;;;;;;;;;;;;;;22.31;58.75;100987.72;4892466;29;6184;-73
2023/10/03 01:33:08;;;;;;;;;;;;;;;22.31;59.07;100981.94;4896499;29;2100;-71
2023/10/03 01:35:35;;;;;;;;;;;;;;;22.29;59.09;100976.13;4878626;29;2312;-72
2023/10/03 01:38:01;;;;;;;;;;;;;;;22.30;58.95;100960.28;4897396;29;2208;-72
2023/10/03 01:40:28;;;;;;;;;;;;;;;22.30;59.08;100963.16;4878955;29;2360;-72
2023/10/03 01:42:55;;;;;;;;;;;;;;;22.29;58.89;100955.91;4895379;29;2128;-72
2023/10/03 01:45:22;;;;;;;;;;;;;;;22.29;59.00;100959.53;4894653;29;2137;-72
2023/10/03 01:47:51;;;;;;;;;;;;;;;22.27;58.88;100955.84;4897546;29;2198;-72
2023/10/03 01:50:19;;;;;;;;;;;;;;;22.28;58.68;100948.66;4898896;29;2204;-72
2023/10/03 01:52:48;;;;;;;;;;;;;;;22.28;58.67;100951.53;4897292;29;2160;-72
2023/10/03 01:55:17;;;;;;;;;;;;;;;22.27;58.62;100956.56;4879822;29;2267;-72
2023/10/03 01:57:45;;;;;;;;;;;;;;;22.27;58.85;100945.03;4878410;29;2117;-72
2023/10/03 02:00:24;;;;;;;;;;;;;;;22.27;58.74;100941.41;4893991;29;6285;-72
2023/10/03 02:02:56;;;;;;;;;;;;;;;22.27;58.80;100932.75;4899347;29;2038;-72
2023/10/03 02:05:27;;;;;;;;;;;;;;;22.26;58.72;100931.25;4880684;29;2138;-72
2023/10/03 02:07:55;;;;;;;;;;;;;;;22.25;58.53;100924.75;4894451;29;2176;-72
2023/10/03 02:10:22;;;;;;;;;;;;;;;22.26;58.81;100919.72;4878136;29;2241;-73
2023/10/03 02:12:49;;;;;;;;;;;;;;;22.26;58.52;100916.84;4865508;29;2423;-72
2023/10/03 02:15:16;;;;;;;;;;;;;;;22.25;58.47;100903.81;4883248;29;2225;-72
2023/10/03 02:17:43;;;;;;;;;;;;;;;22.26;58.40;100902.41;4879284;29;2495;-72
2023/10/03 02:20:15;;;;;;;;;;;;;;;22.26;58.70;100890.88;4900215;29;2378;-71
2023/10/03 02:22:41;;;;;;;;;;;;;;;22.25;58.74;100887.25;4898717;29;2156;-72
2023/10/03 02:25:09;;;;;;;;;;;;;;;22.26;58.55;100879.34;4896527;29;2354;-72
2023/10/03 02:27:35;;;;;;;;;;;;;;;22.26;58.49;100867.81;4898393;29;2084;-72
2023/10/03 02:30:12;;;;;;;;;;;;;;;22.25;58.32;100864.19;4897364;29;2078;-71
2023/10/03 02:32:39;;;;;;;;;;;;;;;22.25;58.58;100866.34;4892380;29;6173;-72
2023/10/03 02:35:06;;;;;;;;;;;;;;;22.25;58.58;100860.56;4896139;29;2343;-72
2023/10/03 02:37:33;;;;;;;;;;;;;;;22.24;58.68;100854.06;4875794;29;2248;-73
2023/10/03 02:40:00;;;;;;;;;;;;;;;22.24;58.36;100854.06;4878148;29;2184;-72
2023/10/03 02:42:28;;;;;;;;;;;;;;;22.23;58.52;100849.69;4883158;29;2145;-72
2023/10/03 02:44:54;;;;;;;;;;;;;;;22.24;58.62;100841.75;4879906;29;2139;-72
2023/10/03 02:47:21;;;;;;;;;;;;;;;22.23;58.48;100834.53;4880889;29;2217;-72
2023/10/03 02:49:49;;;;;;;;;;;;;;;22.22;58.60;100822.25;4891646;29;2303;-72
2023/10/03 02:52:16;;;;;;;;;;;;;;;22.23;58.41;100817.22;4881405;29;2195;-72
2023/10/03 02:54:43;;;;;;;;;;;;;;;22.23;58.23;100820.84;4897666;29;2204;-71
2023/10/03 02:57:09;;;;;;;;;;;;;;;22.22;58.59;100813.59;4892023;29;2266;-72
2023/10/03 02:59:36;;;;;;;;;;;;;;;22.22;58.34;100813.59;4895060;29;2298;-71
2023/10/03 03:02:05;;;;;;;;;;;;;;;22.22;58.46;100815.72;4891799;29;6166;-72
2023/10/03 03:04:33;;;;;;;;;;;;;;;22.21;58.33;100808.44;4881338;29;2134;-72
2023/10/03 03:07:04;;;;;;;;;;;;;;;22.21;58.26;100809.22;4902293;29;2265;-72
2023/10/03 03:09:35;;;;;;;;;;;;;;;22.21;58.56;100802.69;4881677;29;2295;-72
2023/10/03 03:12:04;;;;;;;;;;;;;;;22.21;58.33;100791.16;4900863;29;2239;-71
2023/10/03 03:14:30;;;;;;;;;;;;;;;22.21;58.24;100782.50;4879522;29;2214;-71
2023/10/03 03:16:57;;;;;;;;;;;;;;;22.20;58.42;100772.38;4901852;29;2160;-72
2023/10/03 03:19:26;;;;;;;;;;;;;;;22.20;58.33;100773.09;4900614;29;2152;-71
2023/10/03 03:21:57;;;;;;;;;;;;;;;22.20;58.37;100760.84;4899141;29;2191;-71
2023/10/03 03:24:33;;;;;;;;;;;;;;;22.18;58.12;100753.56;4901556;29;2192;-71
2023/10/03 03:27:00;;;;;;;;;;;;;;;22.20;58.26;100755.81;4900204;29;2197;-72
2023/10/03 03:29:35;;;;;;;;;;;;;;;22.18;58.30;100742.03;4900600;29;2270;-72
2023/10/03 03:32:04;;;;;;;;;;;;;;;22.19;58.11;100742.78;4899028;29;6362;-71
2023/10/03 03:34:30;;;;;;;;;;;;;;;22.18;58.48;100735.53;4901211;29;2195;-72
2023/10/03 03:37:20;;;;;;;;;;;;;;;22.17;58.30;100734.81;4902271;29;2251;-72
2023/10/03 03:39:53;;;;;;;;;;;;;;;22.18;58.18;100726.88;4899511;29;2173;-72
2023/10/03 03:42:22;;;;;;;;;;;;;;;22.17;58.58;100729.03;4900626;29;2213;-71
2023/10/03 03:44:49;;;;;;;;;;;;;;;22.18;58.31;100724.00;4899369;29;2214;-72
2023/10/03 03:47:18;;;;;;;;;;;;;;;22.17;58.30;100726.16;4901235;29;2190;-72
2023/10/03 03:49:46;;;;;;;;;;;;;;;22.17;58.31;100723.28;4899181;29;2223;-72
2023/10/03 03:52:16;;;;;;;;;;;;;;;22.17;58.58;100723.28;4900603;29;2140;-72
2023/10/03 03:54:42;;;;;;;;;;;;;;;22.18;58.30;100718.22;4900809;29;2290;-72
2023/10/03 03:57:09;;;;;;;;;;;;;;;22.17;58.63;100723.28;4901000;29;2251;-72
2023/10/03 03:59:35;;;;;;;;;;;;;;;22.17;58.31;100710.97;4900405;29;2363;-72
2023/10/03 04:02:03;;;;;;;;;;;;;;;22.16;58.36;100698.69;4898277;29;6355;-72
2023/10/03 04:04:29;;;;;;;;;;;;;;;22.16;58.41;100710.25;4900190;29;2303;-70
2023/10/03 04:06:56;;;;;;;;;;;;;;;22.17;58.39;100703.09;4902017;29;2460;-71
2023/10/03 04:09:22;;;;;;;;;;;;;;;22.17;58.35;100699.44;4898482;29;2180;-72
2023/10/03 04:11:48;;;;;;;;;;;;;;;22.17;58.55;100699.44;4901116;29;1633;-72
2023/10/03 04:14:15;;;;;;;;;;;;;;;22.16;58.57;100692.94;4899710;29;2243;-72
2023/10/03 04:16:43;;;;;;;;;;;;;;;22.16;58.40;100695.81;4900477;29;2156;-72
2023/10/03 04:19:10;;;;;;;;;;;;;;;22.17;58.53;100694.44;4900751;29;2239;-71
2023/10/03 04:21:40;;;;;;;;;;;;;;;22.17;58.53;100700.19;4900520;29;2125;-72
2023/10/03 04:24:09;;;;;;;;;;;;;;;22.17;58.29;100690.78;4899022;29;2091;-72
2023/10/03 04:26:36;;;;;;;;;;;;;;;22.16;58.50;100692.94;4890081;29;2207;-72
2023/10/03 04:29:03;;;;;;;;;;;;;;;22.15;58.61;100685.69;4895697;29;2259;-70
2023/10/03 04:31:30;;;;;;;;;;;;;;;22.16;58.51;100672.75;4899274;29;6275;-71
2023/10/03 04:33:56;;;;;;;;;;;;;;;22.16;58.64;100674.91;4898907;29;2219;-70
2023/10/03 04:36:25;;;;;;;;;;;;;;;22.15;58.42;100662.63;4899768;29;2224;-70
2023/10/03 04:38:53;;;;;;;;;;;;;;;22.15;58.73;100673.41;4898883;29;2204;-70
2023/10/03 04:41:20;;;;;;;;;;;;;;;22.16;58.63;100669.88;4900437;29;2227;-70
2023/10/03 04:43:46;;;;;;;;;;;;;;;22.14;58.61;100664.03;4901118;29;2052;-70
2023/10/03 04:46:13;;;;;;;;;;;;;;;22.15;58.56;100656.84;4900999;29;2188;-70
2023/10/03 04:48:39;;;;;;;;;;;;;;;22.15;58.43;100651.09;4899131;29;1919;-70
2023/10/03 04:51:06;;;;;;;;;;;;;;;22.16;58.31;100651.81;4899422;29;2137;-70
2023/10/03 04:53:32;;;;;;;;;;;;;;;22.14;58.31;100643.84;4899682;29;2168;-70
2023/10/03 04:55:59;;;;;;;;;;;;;;;22.15;58.29;100645.31;4897874;29;2347;-70
2023/10/03 04:58:25;;;;;;;;;;;;;;;22.14;58.68;100629.41;4898711;29;2188;-70
2023/10/03 05:00:52;;;;;;;;;;;;;;;22.14;58.47;100625.78;4898613;29;6504;-71
2023/10/03 05:03:19;;;;;;;;;;;;;;;22.15;58.57;100628.03;4897585;29;2277;-70
2023/10/03 05:05:48;;;;;;;;;;;;;;;22.14;58.40;100620.75;4897728;29;2214;-69
2023/10/03 05:08:15;;;;;;;;;;;;;;;22.14;58.34;100615.00;4901150;29;2144;-70
2023/10/03 05:10:42;;;;;;;;;;;;;;;22.14;58.60;100609.22;4899671;29;2133;-70
2023/10/03 05:13:08;;;;;;;;;;;;;;;22.14;58.31;100602.72;4899062;29;2148;-71
2023/10/03 05:15:34;;;;;;;;;;;;;;;22.13;58.60;100604.16;4899131;29;2108;-71
2023/10/03 05:18:03;;;;;;;;;;;;;;;22.14;58.53;100597.69;4899113;29;2074;-70
2023/10/03 05:20:37;;;;;;;;;;;;;;;22.13;58.26;100596.22;4899412;29;2196;-70
2023/10/03 05:23:04;;;;;;;;;;;;;;;22.13;58.34;100584.69;4896677;29;2427;-70
2023/10/03 05:25:36;;;;;;;;;;;;;;;22.14;58.45;100583.28;4899287;29;2069;-71
2023/10/03 05:28:04;;;;;;;;;;;;;;;22.13;58.44;100573.16;4898263;29;2260;-70
2023/10/03 05:30:33;;;;;;;;;;;;;;;22.13;58.25;100570.28;4899019;29;6258;-70
2023/10/03 05:33:00;;;;;;;;;;;;;;;22.13;58.28;100567.38;4898909;29;2149;-71
2023/10/03 05:35:26;;;;;;;;;;;;;;;22.13;58.56;100567.38;4896857;29;2230;-70
2023/10/03 05:37:53;;;;;;;;;;;;;;;22.13;58.52;100555.13;4898804;29;2321;-70
2023/10/03 05:40:20;;;;;;;;;;;;;;;22.13;58.53;100558.75;4898856;29;2090;-70
2023/10/03 05:42:50;;;;;;;;;;;;;;;22.14;58.33;100545.06;4900026;29;2160;-71
2023/10/03 05:45:17;;;;;;;;;;;;;;;22.13;58.25;100550.09;4900440;29;2151;-70
2023/10/03 05:47:46;;;;;;;;;;;;;;;22.13;58.40;100549.34;4899252;29;2278;-70
2023/10/03 05:50:16;;;;;;;;;;;;;;;22.13;58.58;100550.09;4882789;29;2271;-70
2023/10/03 05:52:45;;;;;;;;;;;;;;;22.13;58.55;100555.84;4899988;29;2136;-70
2023/10/03 05:55:12;;;;;;;;;;;;;;;22.12;58.26;100545.72;4899369;29;2207;-70
2023/10/03 05:57:41;;;;;;;;;;;;;;;22.14;58.37;100545.78;4896099;29;2237;-71
2023/10/03 06:00:09;;;;;;;;;;;;;;;22.14;58.29;100545.78;4898096;29;6239;-70
2023/10/03 06:02:36;;;;;;;;;;;;;;;22.12;58.70;100545.72;4897185;29;2144;-70
2023/10/03 06:05:02;;;;;;;;;;;;;;;22.13;58.70;100541.44;4899279;29;2207;-70
2023/10/03 06:07:30;;;;;;;;;;;;;;;22.14;58.34;100542.91;4900000;29;2140;-70
2023/10/03 06:09:56;;;;;;;;;;;;;;;22.12;58.45;100531.28;4898290;29;2192;-70
2023/10/03 06:12:23;;;;;;;;;;;;;;;22.13;58.74;100532.78;4899293;29;2032;-71
2023/10/03 06:14:50;;;;;;;;;;;;;;;22.13;58.61;100521.25;4899020;29;2071;-70
2023/10/03 06:17:19;;;;;;;;;;;;;;;22.13;58.69;100527.03;4897477;29;2212;-70
2023/10/03 06:19:46;;;;;;;;;;;;;;;22.12;58.50;100519.75;4900346;29;2117;-70
2023/10/03 06:22:12;;;;;;;;;;;;;;;22.13;58.77;100526.28;4896673;29;1659;-70
2023/10/03 06:24:39;;;;;;;;;;;;;;;22.13;58.45;100532.06;4900613;29;1653;-70
2023/10/03 06:27:08;;;;;;;;;;;;;;;22.13;58.87;100537.81;4898105;29;2149;-70
2023/10/03 06:29:35;;;;;;;;;;;;;;;22.13;58.70;100527.03;4899454;29;2137;-71
2023/10/03 06:32:01;;;;;;;;;;;;;;;22.12;58.64;100525.53;4897491;29;6635;-70
2023/10/03 06:34:28;;;;;;;;;;;;;;;22.14;58.66;100539.28;4900448;29;1692;-69
2023/10/03 06:36:54;;;;;;;;;;;;;;;22.14;58.62;100533.53;4896167;29;2315;-70
2023/10/03 06:39:21;;;;;;;;;;;;;;;22.12;58.70;100525.53;4881461;29;2169;-70
2023/10/03 06:41:47;;;;;;;;;;;;;;;22.12;58.74;100531.28;4902715;29;1662;-70
2023/10/03 06:44:16;;;;;;;;;;;;;;;22.11;58.87;100521.19;4869312;29;2427;-72
2023/10/03 06:46:42;;;;;;;;;;;;;;;22.15;58.70;100521.31;4902347;29;2204;-72
2023/10/03 06:49:10;;;;;;;;;;;;;;;22.03;58.76;100520.88;4902075;29;1987;-71
2023/10/03 06:51:37;;;;;;;;;;;;;;;21.84;58.42;100513.03;4900729;29;2007;-72
2023/10/03 06:54:04;;;;;;;;;;;;;;;21.97;58.06;100494.75;4902393;29;2185;-72
2023/10/03 06:56:32;;;;;;;;;;;;;;;22.05;58.19;100479.88;4898203;29;3256;-72
2023/10/03 06:58:59;;;;;;;;;;;;;;;22.09;57.93;100471.34;4899716;29;4126;-74
2023/10/03 07:01:26;;;;;;;;;;;;;;;22.10;57.92;100481.47;4897003;29;6258;-74
2023/10/03 07:03:54;;;;;;;;;;;;;;;22.25;58.77;100514.44;4879339;29;4266;-73
2023/10/03 07:06:21;;;;;;;;;;;;;;;22.31;58.46;100495.19;4901209;29;3956;-74
2023/10/03 07:08:48;;;;;;;;;;;;;;;22.34;57.92;100499.59;4903358;29;3712;-73
2023/10/03 07:11:16;;;;;;;;;;;;;;;22.39;58.26;100500.47;4902918;29;4201;-74
2023/10/03 07:13:43;;;;;;;;;;;;;;;22.43;57.63;100489.06;4902444;29;3895;-77
2023/10/03 07:16:11;;;;;;;;;;;;;;;22.44;57.35;100504.22;4904487;29;1677;-74
2023/10/03 07:18:37;;;;;;;;;;;;;;;22.48;58.45;100492.81;4904563;29;3816;-73
2023/10/03 07:21:04;;;;;;;;;;;;;;;22.75;58.59;100488.63;4903884;29;1800;-73
2023/10/03 07:23:30;;;;;;;;;;;;;;;22.87;58.16;100471.66;4903513;29;1606;-73
2023/10/03 07:25:57;;;;;;;;;;;;;;;22.96;58.21;100479.16;4904704;29;1852;-73
2023/10/03 07:28:23;;;;;;;;;;;;;;;22.88;57.51;100496.22;4902048;29;1587;-74
2023/10/03 07:30:50;;;;;;;;;;;;;;;22.85;57.50;100462.94;4900372;29;6457;-74
2023/10/03 07:33:16;;;;;;;;;;;;;;;22.85;57.31;100486.03;4901850;29;1650;-74
2023/10/03 07:35:44;;;;;;;;;;;;;;;22.64;56.95;100496.22;4903645;29;1514;-76
2023/10/03 07:38:11;;;;;;;;;;;;;;;22.51;57.13;100489.31;4902583;29;1852;-74
2023/10/03 07:40:38;;;;;;;;;;;;;;;22.47;57.02;100489.22;4900867;29;3138;-74
2023/10/03 07:43:12;;;;;;;;;;;;;;;22.46;57.00;100481.22;4900793;29;2341;-74
2023/10/03 07:45:40;;;;;;;;;;;;;;;22.35;57.15;100477.25;4895850;29;4175;-74
2023/10/03 07:48:06;;;;;;;;;;;;;;;22.34;57.52;100475.81;4901057;29;1820;-74
2023/10/03 07:50:37;;;;;;;;;;;;;;;22.37;57.40;100468.69;4900952;29;2504;-75
2023/10/03 07:53:11;;;;;;;;;;;;;;;22.37;57.23;100474.44;4901781;29;2057;-75
2023/10/03 07:55:39;;;;;;;;;;;;;;;22.40;57.26;100470.22;4900711;29;2236;-73
2023/10/03 07:58:05;;;;;;;;;;;;;;;22.53;57.05;100474.97;4902036;29;2206;-71
2023/10/03 08:00:32;;;;;;;;;;;;;;;22.54;56.76;100469.91;4901659;29;6564;-72
2023/10/03 08:02:58;;;;;;;;;;;;;;;22.51;56.63;100460.47;4899540;29;2363;-72
2023/10/03 08:05:27;;;;;;;;;;;;;;;22.59;56.42;100457.09;4899385;29;4244;-71
2023/10/03 08:07:54;;;;;;;;;;;;;;;22.61;56.32;100442.75;4902549;29;3853;-71
2023/10/03 08:10:21;;;;;;;;;;;;;;;22.62;56.37;100440.59;4902300;29;1911;-70
2023/10/03 08:12:52;;;;;;;;;;;;;;;22.68;56.24;100452.31;4902054;29;3718;-70
2023/10/03 08:15:22;;;;;;;;;;;;;;;22.69;56.12;100445.13;4903649;29;1789;-75
2023/10/03 08:17:49;;;;;;;;;;;;;;;22.72;56.04;100449.53;4904771;29;1630;-70
2023/10/03 08:20:18;;;;;;;;;;;;;;;22.57;56.11;100452.00;4903616;29;1627;-75
2023/10/03 08:22:53;;;;;;;;;;;;;;;22.50;56.69;100435.91;4903181;29;1697;-75
2023/10/03 08:25:19;;;;;;;;;;;;;;;22.37;56.71;100443.44;4904557;29;3815;-77
2023/10/03 08:27:46;;;;;;;;;;;;;;;22.33;56.80;100436.81;4903247;29;1568;-78
2023/10/03 08:30:26;;;;;;;;;;;;;;;22.42;56.80;100450.09;4901262;29;6229;-76
2023/10/03 08:32:56;;;;;;;;;;;;;;;22.44;56.59;100443.66;4903743;29;3770;-76
2023/10/03 08:35:34;;;;;;;;;;;;;;;22.42;56.55;100429.16;4904432;29;1675;-75
2023/10/03 08:38:07;;;;;;;;;;;;;;;22.40;56.54;100426.22;4904031;29;3626;-75
2023/10/03 08:40:41;;;;;;;;;;;;;;;22.41;56.78;100427.69;4904296;29;1585;-76
2023/10/03 08:43:08;;;;;;;;;;;;;;;22.45;56.72;100422.03;4902142;29;2381;-76
2023/10/03 08:45:41;;;;;;;;;;;;;;;22.41;56.59;100428.44;4899742;29;2330;-76
2023/10/03 08:48:08;;;;;;;;;;;;;;;22.45;56.65;100422.78;4901282;29;1809;-77
2023/10/03 08:50:41;;;;;;;;;;;;;;;22.41;56.65;100416.16;4901186;29;1911;-77
2023/10/03 08:53:17;;;;;;;;;;;;;;;22.43;56.81;100419.09;4900989;29;2369;-77
2023/10/03 08:55:44;;;;;;;;;;;;;;;22.44;56.60;100412.66;4899915;29;4273;-74
2023/10/03 08:58:13;;;;;;;;;;;;;;;22.44;56.66;100414.78;4896859;29;2259;-70
2023/10/03 09:00:43;;;;;;;;;;;;;;;22.65;56.58;100404.59;4899709;29;6368;-70
2023/10/03 09:03:11;;;;;;;;;;;;;;;22.81;56.50;100433.94;4896758;29;2189;-69
2023/10/03 09:05:40;;;;;;;;;;;;;;;22.88;56.09;100421.16;4897522;29;2204;-70
2023/10/03 09:08:10;;;;;;;;;;;;;;;22.61;56.28;100419.66;4897730;29;2231;-70
2023/10/03 09:10:52;;;;;;;;;;;;;;;22.53;56.79;100425.19;4899158;29;2140;-70
2023/10/03 09:13:23;;;;;;;;;;;;;;;22.48;56.94;100427.19;4897998;29;2203;-70
2023/10/03 09:15:59;;;;;;;;;;;;;;;22.46;57.10;100429.28;4899193;29;2203;-70
2023/10/03 09:18:31;;;;;;;;;;;;;;;22.45;57.08;100434.31;4899692;29;2379;-70
2023/10/03 09:21:00;;;;;;;;;;;;;;;22.44;57.25;100435.72;4899637;29;2485;-70
2023/10/03 09:23:27;;;;;;;;;;;;;;;22.45;57.02;100428.56;4897931;29;2577;-70
2023/10/03 09:25:56;;;;;;;;;;;;;;;22.44;57.04;100421.31;4898101;29;2631;-70
2023/10/03 09:28:35;;;;;;;;;;;;;;;22.44;57.12;100426.34;4899399;29;2228;-70
2023/10/03 09:31:10;;;;;;;;;;;;;;;22.45;57.29;100434.31;4899330;29;6240;-70
2023/10/03 09:33:39;;;;;;;;;;;;;;;22.44;57.20;100414.78;4897978;29;2225;-70
2023/10/03 09:36:08;;;;;;;;;;;;;;;22.44;57.46;100432.09;4899125;29;2247;-70
2023/10/03 09:38:42;;;;;;;;;;;;;;;22.45;57.21;100437.22;4897844;29;2214;-70
2023/10/03 09:41:16;;;;;;;;;;;;;;;22.45;57.39;100410.50;4897052;29;2290;-70
2023/10/03 09:43:47;;;;;;;;;;;;;;;22.44;57.50;100429.97;4898337;29;2301;-70
2023/10/03 09:46:14;;;;;;;;;;;;;;;22.43;57.39;100414.06;4900221;29;2180;-70
2023/10/03 09:48:40;;;;;;;;;;;;;;;22.44;57.48;100403.25;4879798;29;2210;-69
2023/10/03 09:51:07;;;;;;;;;;;;;;;22.44;57.59;100409.03;4898110;29;2329;-70
2023/10/03 09:53:33;;;;;;;;;;;;;;;22.45;57.36;100405.47;4882309;29;2463;-70
2023/10/03 09:56:00;;;;;;;;;;;;;;;22.44;57.71;100409.75;4897762;29;2085;-70
2023/10/03 09:58:31;;;;;;;;;;;;;;;22.45;57.34;100440.09;4898503;29;2207;-70
2023/10/03 10:00:58;;;;;;;;;;;;;;;22.44;57.75;100415.53;4899187;29;6367;-70
2023/10/03 10:03:28;;;;;;;;;;;;;;;22.44;57.36;100415.53;4886243;29;2224;-70
2023/10/03 10:06:13;;;;;;;;;;;;;;;22.45;57.74;100417.03;4878891;29;2385;-69
2023/10/03 10:08:57;;;;;;;;;;;;;;;22.40;57.92;100409.63;4898064;29;3013;-68
2023/10/03 10:11:30;;;;;;;;;;;;;;;22.51;57.73;100413.56;4899047;29;2113;-72
2023/10/03 10:14:08;;;;;;;;;;;;;;;22.45;58.08;100404.72;4902619;29;1594;-71
2023/10/03 10:16:35;;;;;;;;;;;;;;;22.42;57.70;100398.16;4885804;29;2164;-77
2023/10/03 10:19:04;;;;;;;;;;;;;;;22.72;58.80;100397.59;4904824;29;2213;-80
2023/10/03 10:21:31;;;;;;;;;;;;;;;22.85;56.64;100410.25;4902694;29;3081;-82
2023/10/03 10:24:20;;;;;;;;;;;;;;;22.91;57.86;100410.44;4897771;29;4608;-83
2023/10/03 10:26:49;;;;;;;;;;;;;;;22.98;57.47;100412.81;4903628;29;2319;-82
2023/10/03 10:29:19;;;;;;;;;;;;;;;23.04;57.00;100408.63;4903723;29;2874;-83
2023/10/03 10:31:52;;;;;;;;;;;;;;;23.01;56.81;100410.72;4903292;29;6580;-80
2023/10/03 10:34:21;;;;;;;;;;;;;;;23.07;56.37;100418.84;4903609;29;2267;-77
2023/10/03 10:36:55;;;;;;;;;;;;;;;23.06;56.61;100417.34;4907096;29;1677;-77
2023/10/03 10:39:23;;;;;;;;;;;;;;;23.15;56.07;100410.38;4905291;29;1637;-76
2023/10/03 10:42:11;;;;;;;;;;;;;;;23.09;55.78;100421.75;4904544;29;2921;-77
2023/10/03 10:44:58;;;;;;;;;;;;;;;23.15;55.56;100414.00;4903126;29;2281;-75
2023/10/03 10:47:24;;;;;;;;;;;;;;;23.33;55.94;100408.00;4904033;29;1655;-76
2023/10/03 10:49:54;;;;;;;;;;;;;;;23.22;55.48;100414.91;4892721;29;1592;-78
2023/10/03 10:52:52;;;;;;;;;;;;;;;23.26;55.04;100391.94;4903644;29;2247;-76
2023/10/03 10:55:20;;;;;;;;;;;;;;;23.27;54.64;100407.81;4901005;29;2328;-77
2023/10/03 10:57:48;;;;;;;;;;;;;;;23.35;55.29;100407.34;4906510;29;1660;-78
2023/10/03 11:00:20;;;;;;;;;;;;;;;23.36;55.01;100420.34;4890054;29;6084;-79
2023/10/03 11:02:47;;;;;;;;;;;;;;;23.24;54.67;100420.03;4900667;29;4231;-77
2023/10/03 11:05:14;;;;;;;;;;;;;;;23.33;55.08;100427.50;4900226;29;5012;-77
2023/10/03 11:07:44;;;;;;;;;;;;;;;23.38;54.56;100418.25;4900758;29;3230;-77
2023/10/03 11:10:12;;;;;;;;;;;;;;;23.42;54.51;100429.91;4903054;29;3204;-76
2023/10/03 11:12:59;;;;;;;;;;;;;;;23.40;54.49;100426.97;4901678;29;5134;-76
2023/10/03 11:15:26;;;;;;;;;;;;;;;23.27;54.31;100425.16;4904803;29;4806;-77
2023/10/03 11:17:52;;;;;;;;;;;;;;;23.08;55.09;100420.31;4901042;29;3301;-74
2023/10/03 11:20:19;;;;;;;;;;;;;;;22.86;55.92;100432.66;4902794;29;1852;-74
2023/10/03 11:22:47;;;;;;;;;;;;;;;23.11;55.81;100430.50;4884666;29;1734;-75
2023/10/03 11:25:13;;;;;;;;;;;;;;;23.22;55.36;100440.91;4901894;29;2229;-76
2023/10/03 11:27:40;;;;;;;;;;;;;;;23.23;55.16;100441.63;4902454;29;4741;-75
2023/10/03 11:30:16;;;;;;;;;;;;;;;23.23;54.97;100453.19;4902537;29;7604;-75
2023/10/03 11:32:43;;;;;;;;;;;;;;;23.21;55.13;100457.50;4902583;29;2272;-75
2023/10/03 11:35:13;;;;;;;;;;;;;;;23.24;55.32;100455.41;4902751;29;3184;-75
2023/10/03 11:37:43;;;;;;;;;;;;;;;23.33;55.41;100444.81;4903058;29;3093;-75
2023/10/03 11:40:11;;;;;;;;;;;;;;;23.41;55.35;100457.34;4901044;29;2287;-74
2023/10/03 11:42:47;;;;;;;;;;;;;;;23.45;55.16;100450.19;4901429;29;2329;-74
2023/10/03 11:45:24;;;;;;;;;;;;;;;23.45;54.79;100447.31;4898087;29;4858;-75
2023/10/03 11:47:58;;;;;;;;;;;;;;;23.43;55.02;100456.66;4898915;29;3147;-74
2023/10/03 11:50:28;;;;;;;;;;;;;;;23.48;55.15;100448.84;4902647;29;3207;-74
2023/10/03 11:52:56;;;;;;;;;;;;;;;23.52;55.03;100451.84;4901142;29;2223;-75
2023/10/03 11:55:23;;;;;;;;;;;;;;;23.57;54.92;100441.84;4900931;29;2358;-74
2023/10/03 11:57:50;;;;;;;;;;;;;;;23.51;54.60;100447.47;4899643;29;2340;-74
2023/10/03 12:00:16;;;;;;;;;;;;;;;23.32;55.06;100444.09;4898390;29;6300;-74
2023/10/03 12:02:45;;;;;;;;;;;;;;;23.17;55.52;100439.34;4899696;29;3281;-73
2023/10/03 12:05:12;;;;;;;;;;;;;;;23.13;55.66;100457.28;4901249;29;2287;-73
2023/10/03 12:07:45;;;;;;;;;;;;;;;23.10;55.74;100455.03;4899397;29;2340;-73
2023/10/03 12:10:12;;;;;;;;;;;;;;;23.07;55.84;100447.72;4884920;29;2268;-74
2023/10/03 12:12:38;;;;;;;;;;;;;;;23.10;55.93;100460.78;4901991;29;2315;-72
2023/10/03 12:15:12;;;;;;;;;;;;;;;23.09;55.82;100467.97;4898565;29;3337;-73
2023/10/03 12:17:39;;;;;;;;;;;;;;;23.40;55.69;100461.63;4900638;29;2184;-74
2023/10/03 12:20:07;;;;;;;;;;;;;;;23.51;55.44;100459.03;4899555;29;2272;-74
2023/10/03 12:22:39;;;;;;;;;;;;;;;23.55;55.35;100462.06;4870290;29;3122;-74
2023/10/03 12:25:06;;;;;;;;;;;;;;;23.57;55.16;100456.28;4899517;29;2450;-74
2023/10/03 12:27:32;;;;;;;;;;;;;;;23.56;55.16;100454.84;4881398;29;2337;-74
2023/10/03 12:30:03;;;;;;;;;;;;;;;23.60;55.01;100458.56;4901122;29;2355;-74
2023/10/03 12:32:34;;;;;;;;;;;;;;;23.47;55.02;100453.16;4900839;29;6281;-74
2023/10/03 12:35:01;;;;;;;;;;;;;;;23.27;55.65;100451.16;4900844;29;2310;-74
2023/10/03 12:37:28;;;;;;;;;;;;;;;23.14;56.03;100455.16;4899932;29;2243;-74
2023/10/03 12:39:56;;;;;;;;;;;;;;;23.15;55.86;100447.94;4899611;29;2749;-72
2023/10/03 12:42:22;;;;;;;;;;;;;;;23.31;56.23;100462.84;4897592;29;2414;-75
2023/10/03 12:44:50;;;;;;;;;;;;;;;23.48;55.58;100461.16;4899877;29;2307;-75
2023/10/03 12:47:18;;;;;;;;;;;;;;;23.54;55.22;100454.78;4900110;29;2259;-74
2023/10/03 12:49:44;;;;;;;;;;;;;;;23.54;55.52;100449.00;4896192;29;2435;-74
2023/10/03 12:52:10;;;;;;;;;;;;;;;23.57;55.23;100450.53;4898952;29;2331;-74
2023/10/03 12:54:38;;;;;;;;;;;;;;;23.56;55.20;100446.16;4898403;29;2310;-74
2023/10/03 12:57:05;;;;;;;;;;;;;;;23.55;55.12;100450.50;4897058;29;2356;-75
2023/10/03 12:59:32;;;;;;;;;;;;;;;23.52;55.22;100443.88;4898886;29;2308;-74